sensor_id;sensor_type;location;lat;lon;timestamp;temperature;humidity
62998;DHT22;55949;52.590;7.330;2022-10-31T00:00:20;16.00;99.90
62998;DHT22;55949;52.590;7.330;2022-10-31T00:01:35;15.80;99.90
62998;DHT22;55949;52.590;7.330;2022-10-31T00:02:36;15.80;99.90
62998;DHT22;55949;52.590;7.330;2022-10-31T00:03:36;15.80;99.90
62998;DHT22;55949;52.590;7.330;2022-10-31T00:04:37;15.70;99.90
62998;DHT22;55949;52.590;7.330;2022-10-31T00:05:46;15.90;99.90
62998;DHT22;55949;52.590;7.330;2022-10-31T00:06:47;15.70;99.90
62998;DHT22;55949;52.590;7.330;2022-10-31T00:07:51;15.60;99.90
62998;DHT22;55949;52.590;7.330;2022-10-31T00:08:54;15.80;99.90
62998;DHT22;55949;52.590;7.330;2022-10-31T00:09:54;15.90;99.90
62998;DHT22;55949;52.590;7.330;2022-10-31T00:10:55;15.90;99.90
62998;DHT22;55949;52.590;7.330;2022-10-31T00:11:56;16.00;99.90
62998;DHT22;55949;52.590;7.330;2022-10-31T00:12:57;16.10;99.90
62998;DHT22;55949;52.590;7.330;2022-10-31T00:13:58;16.10;99.90
62998;DHT22;55949;52.590;7.330;2022-10-31T00:14:59;16.10;99.90
62998;DHT22;55949;52.590;7.330;2022-10-31T00:16:00;16.20;99.90
62998;DHT22;55949;52.590;7.330;2022-10-31T00:17:00;16.30;99.90
62998;DHT22;55949;52.590;7.330;2022-10-31T00:18:02;16.10;99.90
62998;DHT22;55949;52.590;7.330;2022-10-31T00:19:06;15.80;99.90
62998;DHT22;55949;52.590;7.330;2022-10-31T00:20:07;16.00;99.90
62998;DHT22;55949;52.590;7.330;2022-10-31T00:21:08;15.80;99.90
62998;DHT22;55949;52.590;7.330;2022-10-31T00:22:09;15.90;99.90
62998;DHT22;55949;52.590;7.330;2022-10-31T00:23:10;16.00;99.90
62998;DHT22;55949;52.590;7.330;2022-10-31T00:24:11;16.10;99.90
62998;DHT22;55949;52.590;7.330;2022-10-31T00:25:12;16.20;99.90
62998;DHT22;55949;52.590;7.330;2022-10-31T00:26:13;16.30;99.90
62998;DHT22;55949;52.590;7.330;2022-10-31T00:27:14;16.20;99.90
62998;DHT22;55949;52.590;7.330;2022-10-31T00:28:15;16.20;99.90
62998;DHT22;55949;52.590;7.330;2022-10-31T00:29:15;16.00;99.90
62998;DHT22;55949;52.590;7.330;2022-10-31T00:30:16;15.80;99.90
62998;DHT22;55949;52.590;7.330;2022-10-31T00:31:17;15.70;99.90
62998;DHT22;55949;52.590;7.330;2022-10-31T00:32:18;15.60;99.90
62998;DHT22;55949;52.590;7.330;2022-10-31T00:33:18;15.50;99.90
62998;DHT22;55949;52.590;7.330;2022-10-31T00:34:19;15.30;99.90
62998;DHT22;55949;52.590;7.330;2022-10-31T00:35:20;15.00;99.90
62998;DHT22;55949;52.590;7.330;2022-10-31T00:36:20;14.70;99.90
62998;DHT22;55949;52.590;7.330;2022-10-31T00:37:21;14.60;99.90
62998;DHT22;55949;52.590;7.330;2022-10-31T00:38:22;14.70;99.90
62998;DHT22;55949;52.590;7.330;2022-10-31T00:39:23;14.70;99.90
62998;DHT22;55949;52.590;7.330;2022-10-31T00:40:23;14.70;99.90
62998;DHT22;55949;52.590;7.330;2022-10-31T00:41:24;14.60;99.90
62998;DHT22;55949;52.590;7.330;2022-10-31T00:42:25;14.50;99.90
62998;DHT22;55949;52.590;7.330;2022-10-31T00:43:25;14.40;99.90
62998;DHT22;55949;52.590;7.330;2022-10-31T00:44:26;14.50;99.90
62998;DHT22;55949;52.590;7.330;2022-10-31T00:45:27;14.50;99.90
62998;DHT22;55949;52.590;7.330;2022-10-31T00:46:27;14.40;99.90
62998;DHT22;55949;52.590;7.330;2022-10-31T00:47:28;14.50;99.90
62998;DHT22;55949;52.590;7.330;2022-10-31T00:48:29;14.40;99.90
62998;DHT22;55949;52.590;7.330;2022-10-31T00:49:30;14.50;99.90
62998;DHT22;55949;52.590;7.330;2022-10-31T00:50:31;14.60;99.90
62998;DHT22;55949;52.590;7.330;2022-10-31T00:51:31;14.50;99.90
62998;DHT22;55949;52.590;7.330;2022-10-31T00:52:32;14.60;99.90
62998;DHT22;55949;52.590;7.330;2022-10-31T00:53:33;14.70;99.90
62998;DHT22;55949;52.590;7.330;2022-10-31T00:54:33;14.70;99.90
62998;DHT22;55949;52.590;7.330;2022-10-31T00:55:34;14.70;99.90
62998;DHT22;55949;52.590;7.330;2022-10-31T00:56:35;14.80;99.90
62998;DHT22;55949;52.590;7.330;2022-10-31T00:57:35;15.00;99.90
62998;DHT22;55949;52.590;7.330;2022-10-31T00:58:36;15.00;99.90
62998;DHT22;55949;52.590;7.330;2022-10-31T00:59:37;15.10;99.90
62998;DHT22;55949;52.590;7.330;2022-10-31T01:00:37;15.30;99.90
62998;DHT22;55949;52.590;7.330;2022-10-31T01:01:38;15.30;99.90
62998;DHT22;55949;52.590;7.330;2022-10-31T01:02:39;14.90;99.90
62998;DHT22;55949;52.590;7.330;2022-10-31T01:03:39;15.10;99.90
62998;DHT22;55949;52.590;7.330;2022-10-31T01:04:40;15.30;99.90
62998;DHT22;55949;52.590;7.330;2022-10-31T01:05:41;15.40;99.90
62998;DHT22;55949;52.590;7.330;2022-10-31T01:06:41;15.50;99.90
62998;DHT22;55949;52.590;7.330;2022-10-31T01:07:42;15.60;99.90
62998;DHT22;55949;52.590;7.330;2022-10-31T01:08:43;15.70;99.90
62998;DHT22;55949;52.590;7.330;2022-10-31T01:09:44;15.70;99.90
62998;DHT22;55949;52.590;7.330;2022-10-31T01:10:44;15.70;99.90
62998;DHT22;55949;52.590;7.330;2022-10-31T01:11:45;15.70;99.90
62998;DHT22;55949;52.590;7.330;2022-10-31T01:12:48;15.90;99.90
62998;DHT22;55949;52.590;7.330;2022-10-31T01:13:52;15.80;99.90
62998;DHT22;55949;52.590;7.330;2022-10-31T01:14:53;15.70;99.90
62998;DHT22;55949;52.590;7.330;2022-10-31T01:15:56;15.70;99.90
62998;DHT22;55949;52.590;7.330;2022-10-31T01:16:56;15.90;99.90
62998;DHT22;55949;52.590;7.330;2022-10-31T01:17:57;15.80;99.90
62998;DHT22;55949;52.590;7.330;2022-10-31T01:18:58;15.70;99.90
62998;DHT22;55949;52.590;7.330;2022-10-31T01:19:58;15.70;99.90
62998;DHT22;55949;52.590;7.330;2022-10-31T01:22:03;15.90;99.90
62998;DHT22;55949;52.590;7.330;2022-10-31T01:23:03;16.00;99.90
62998;DHT22;55949;52.590;7.330;2022-10-31T01:24:04;16.20;99.90
62998;DHT22;55949;52.590;7.330;2022-10-31T01:25:06;16.10;99.90
62998;DHT22;55949;52.590;7.330;2022-10-31T01:26:19;16.10;99.90
62998;DHT22;55949;52.590;7.330;2022-10-31T01:27:21;16.30;99.90
62998;DHT22;55949;52.590;7.330;2022-10-31T01:28:22;16.30;99.90
62998;DHT22;55949;52.590;7.330;2022-10-31T01:29:22;16.20;99.90
62998;DHT22;55949;52.590;7.330;2022-10-31T01:30:23;16.00;99.90
62998;DHT22;55949;52.590;7.330;2022-10-31T01:31:26;16.00;99.90
62998;DHT22;55949;52.590;7.330;2022-10-31T01:32:27;16.10;99.90
62998;DHT22;55949;52.590;7.330;2022-10-31T01:33:35;16.10;99.90
62998;DHT22;55949;52.590;7.330;2022-10-31T01:34:36;16.20;99.90
62998;DHT22;55949;52.590;7.330;2022-10-31T01:35:37;16.20;99.90
62998;DHT22;55949;52.590;7.330;2022-10-31T01:36:38;16.20;99.90
62998;DHT22;55949;52.590;7.330;2022-10-31T01:37:39;16.30;99.90
62998;DHT22;55949;52.590;7.330;2022-10-31T01:38:39;16.30;99.90
62998;DHT22;55949;52.590;7.330;2022-10-31T01:39:40;16.40;99.90
62998;DHT22;55949;52.590;7.330;2022-10-31T01:40:41;16.40;99.90
62998;DHT22;55949;52.590;7.330;2022-10-31T01:41:46;16.30;99.90
62998;DHT22;55949;52.590;7.330;2022-10-31T01:42:46;16.10;99.90
62998;DHT22;55949;52.590;7.330;2022-10-31T01:43:54;16.20;99.90
62998;DHT22;55949;52.590;7.330;2022-10-31T01:44:59;16.20;99.90
62998;DHT22;55949;52.590;7.330;2022-10-31T01:46:00;16.20;99.90
62998;DHT22;55949;52.590;7.330;2022-10-31T01:47:11;16.20;99.90
62998;DHT22;55949;52.590;7.330;2022-10-31T01:48:16;16.20;99.90
62998;DHT22;55949;52.590;7.330;2022-10-31T01:49:21;16.10;99.90
62998;DHT22;55949;52.590;7.330;2022-10-31T01:50:30;16.30;99.90
62998;DHT22;55949;52.590;7.330;2022-10-31T01:51:38;16.30;99.90
62998;DHT22;55949;52.590;7.330;2022-10-31T01:52:47;16.30;99.90
62998;DHT22;55949;52.590;7.330;2022-10-31T01:53:51;16.30;99.90
62998;DHT22;55949;52.590;7.330;2022-10-31T01:55:03;16.40;99.90
62998;DHT22;55949;52.590;7.330;2022-10-31T01:56:06;16.40;99.90
62998;DHT22;55949;52.590;7.330;2022-10-31T01:57:08;16.40;99.90
62998;DHT22;55949;52.590;7.330;2022-10-31T01:58:20;16.30;99.90
62998;DHT22;55949;52.590;7.330;2022-10-31T01:59:26;16.40;99.90
62998;DHT22;55949;52.590;7.330;2022-10-31T02:00:29;16.30;99.90
62998;DHT22;55949;52.590;7.330;2022-10-31T02:01:30;16.30;99.90
62998;DHT22;55949;52.590;7.330;2022-10-31T02:02:31;16.30;99.90
62998;DHT22;55949;52.590;7.330;2022-10-31T02:03:32;16.10;99.90
62998;DHT22;55949;52.590;7.330;2022-10-31T02:04:34;16.00;99.90
62998;DHT22;55949;52.590;7.330;2022-10-31T02:05:35;15.90;99.90
62998;DHT22;55949;52.590;7.330;2022-10-31T02:06:45;15.70;99.90
62998;DHT22;55949;52.590;7.330;2022-10-31T02:08:10;15.60;99.90
62998;DHT22;55949;52.590;7.330;2022-10-31T02:09:14;15.50;99.90
62998;DHT22;55949;52.590;7.330;2022-10-31T02:10:15;15.20;99.90
62998;DHT22;55949;52.590;7.330;2022-10-31T02:11:16;15.30;99.90
62998;DHT22;55949;52.590;7.330;2022-10-31T02:12:17;15.10;99.90
62998;DHT22;55949;52.590;7.330;2022-10-31T02:13:19;15.00;99.90
62998;DHT22;55949;52.590;7.330;2022-10-31T02:14:25;14.90;99.90
62998;DHT22;55949;52.590;7.330;2022-10-31T02:15:28;14.90;99.90
62998;DHT22;55949;52.590;7.330;2022-10-31T02:16:29;14.90;99.90
62998;DHT22;55949;52.590;7.330;2022-10-31T02:17:30;15.00;99.90
62998;DHT22;55949;52.590;7.330;2022-10-31T02:18:31;15.10;99.90
62998;DHT22;55949;52.590;7.330;2022-10-31T02:21:11;14.80;99.90
62998;DHT22;55949;52.590;7.330;2022-10-31T02:26:12;15.00;99.90
62998;DHT22;55949;52.590;7.330;2022-10-31T02:30:55;15.00;99.90
62998;DHT22;55949;52.590;7.330;2022-10-31T02:33:30;14.90;99.90
62998;DHT22;55949;52.590;7.330;2022-10-31T02:36:43;15.10;99.90
62998;DHT22;55949;52.590;7.330;2022-10-31T02:39:20;15.70;99.90
62998;DHT22;55949;52.590;7.330;2022-10-31T02:40:31;15.70;99.90
62998;DHT22;55949;52.590;7.330;2022-10-31T02:41:52;15.80;99.90
62998;DHT22;55949;52.590;7.330;2022-10-31T02:44:44;15.80;99.90
62998;DHT22;55949;52.590;7.330;2022-10-31T02:46:13;15.50;99.90
62998;DHT22;55949;52.590;7.330;2022-10-31T02:47:16;15.40;99.90
62998;DHT22;55949;52.590;7.330;2022-10-31T02:48:26;15.50;99.90
62998;DHT22;55949;52.590;7.330;2022-10-31T02:49:52;15.50;99.90
62998;DHT22;55949;52.590;7.330;2022-10-31T02:50:59;15.60;99.90
62998;DHT22;55949;52.590;7.330;2022-10-31T02:52:01;15.60;99.90
62998;DHT22;55949;52.590;7.330;2022-10-31T02:53:02;15.60;99.90
62998;DHT22;55949;52.590;7.330;2022-10-31T02:54:03;15.40;99.90
62998;DHT22;55949;52.590;7.330;2022-10-31T02:55:39;15.40;99.90
62998;DHT22;55949;52.590;7.330;2022-10-31T02:56:32;15.30;99.90
62998;DHT22;55949;52.590;7.330;2022-10-31T02:57:34;15.40;99.90
62998;DHT22;55949;52.590;7.330;2022-10-31T02:58:40;15.40;99.90
62998;DHT22;55949;52.590;7.330;2022-10-31T02:59:48;15.30;99.90
62998;DHT22;55949;52.590;7.330;2022-10-31T03:01:14;15.30;99.90
62998;DHT22;55949;52.590;7.330;2022-10-31T03:03:17;15.40;99.90
62998;DHT22;55949;52.590;7.330;2022-10-31T03:09:23;15.20;99.90
62998;DHT22;55949;52.590;7.330;2022-10-31T03:11:56;15.00;99.90
62998;DHT22;55949;52.590;7.330;2022-10-31T03:13:09;14.90;99.90
62998;DHT22;55949;52.590;7.330;2022-10-31T03:14:20;14.70;99.90
62998;DHT22;55949;52.590;7.330;2022-10-31T03:15:29;14.70;99.90
62998;DHT22;55949;52.590;7.330;2022-10-31T03:19:12;14.70;99.90
62998;DHT22;55949;52.590;7.330;2022-10-31T03:20:16;14.60;99.90
62998;DHT22;55949;52.590;7.330;2022-10-31T03:21:21;14.80;99.90
62998;DHT22;55949;52.590;7.330;2022-10-31T03:22:24;14.90;99.90
62998;DHT22;55949;52.590;7.330;2022-10-31T03:23:26;14.90;99.90
62998;DHT22;55949;52.590;7.330;2022-10-31T03:24:36;14.90;99.90
62998;DHT22;55949;52.590;7.330;2022-10-31T03:25:37;14.80;99.90
62998;DHT22;55949;52.590;7.330;2022-10-31T03:26:46;14.70;99.90
62998;DHT22;55949;52.590;7.330;2022-10-31T03:27:48;14.70;99.90
62998;DHT22;55949;52.590;7.330;2022-10-31T03:29:00;14.60;99.90
62998;DHT22;55949;52.590;7.330;2022-10-31T03:30:05;14.60;99.90
62998;DHT22;55949;52.590;7.330;2022-10-31T03:31:09;14.80;99.90
62998;DHT22;55949;52.590;7.330;2022-10-31T03:32:15;15.10;99.90
62998;DHT22;55949;52.590;7.330;2022-10-31T03:33:22;15.20;99.90
62998;DHT22;55949;52.590;7.330;2022-10-31T03:34:25;15.30;99.90
62998;DHT22;55949;52.590;7.330;2022-10-31T03:35:27;15.30;99.90
62998;DHT22;55949;52.590;7.330;2022-10-31T03:36:34;15.30;99.90
62998;DHT22;55949;52.590;7.330;2022-10-31T03:37:36;15.40;99.90
62998;DHT22;55949;52.590;7.330;2022-10-31T03:38:39;15.50;99.90
62998;DHT22;55949;52.590;7.330;2022-10-31T03:39:43;15.50;99.90
62998;DHT22;55949;52.590;7.330;2022-10-31T03:40:46;15.40;99.90
62998;DHT22;55949;52.590;7.330;2022-10-31T03:41:58;15.40;99.90
62998;DHT22;55949;52.590;7.330;2022-10-31T03:43:05;15.30;99.90
62998;DHT22;55949;52.590;7.330;2022-10-31T03:44:17;15.20;99.90
62998;DHT22;55949;52.590;7.330;2022-10-31T03:45:28;15.30;99.90
62998;DHT22;55949;52.590;7.330;2022-10-31T03:46:30;15.40;99.90
62998;DHT22;55949;52.590;7.330;2022-10-31T03:47:31;15.20;99.90
62998;DHT22;55949;52.590;7.330;2022-10-31T03:48:32;15.20;99.90
62998;DHT22;55949;52.590;7.330;2022-10-31T03:49:34;15.10;99.90
62998;DHT22;55949;52.590;7.330;2022-10-31T03:51:13;15.00;99.90
62998;DHT22;55949;52.590;7.330;2022-10-31T03:53:38;14.70;99.90
62998;DHT22;55949;52.590;7.330;2022-10-31T03:54:45;14.90;99.90
62998;DHT22;55949;52.590;7.330;2022-10-31T03:57:21;14.70;99.90
62998;DHT22;55949;52.590;7.330;2022-10-31T03:58:28;14.50;99.90
62998;DHT22;55949;52.590;7.330;2022-10-31T03:59:36;14.30;99.90
62998;DHT22;55949;52.590;7.330;2022-10-31T04:00:41;14.20;99.90
62998;DHT22;55949;52.590;7.330;2022-10-31T04:01:47;14.30;99.90
62998;DHT22;55949;52.590;7.330;2022-10-31T04:02:57;14.30;99.90
62998;DHT22;55949;52.590;7.330;2022-10-31T04:04:00;14.30;99.90
62998;DHT22;55949;52.590;7.330;2022-10-31T04:05:02;14.10;99.90
62998;DHT22;55949;52.590;7.330;2022-10-31T04:06:06;14.20;99.90
62998;DHT22;55949;52.590;7.330;2022-10-31T04:07:10;14.10;99.90
62998;DHT22;55949;52.590;7.330;2022-10-31T04:08:15;14.20;99.90
62998;DHT22;55949;52.590;7.330;2022-10-31T04:09:17;14.20;99.90
62998;DHT22;55949;52.590;7.330;2022-10-31T04:10:21;14.20;99.90
62998;DHT22;55949;52.590;7.330;2022-10-31T04:11:25;14.20;99.90
62998;DHT22;55949;52.590;7.330;2022-10-31T04:12:28;14.10;99.90
62998;DHT22;55949;52.590;7.330;2022-10-31T04:13:31;14.20;99.90
62998;DHT22;55949;52.590;7.330;2022-10-31T04:14:38;14.30;99.90
62998;DHT22;55949;52.590;7.330;2022-10-31T04:15:41;14.20;99.90
62998;DHT22;55949;52.590;7.330;2022-10-31T04:16:43;14.30;99.90
62998;DHT22;55949;52.590;7.330;2022-10-31T04:17:45;14.10;99.90
62998;DHT22;55949;52.590;7.330;2022-10-31T04:18:47;14.20;99.90
62998;DHT22;55949;52.590;7.330;2022-10-31T04:19:48;14.20;99.90
62998;DHT22;55949;52.590;7.330;2022-10-31T04:20:49;14.20;99.90
62998;DHT22;55949;52.590;7.330;2022-10-31T04:21:50;14.10;99.90
62998;DHT22;55949;52.590;7.330;2022-10-31T04:22:51;14.10;99.90
62998;DHT22;55949;52.590;7.330;2022-10-31T04:23:51;14.00;99.90
62998;DHT22;55949;52.590;7.330;2022-10-31T04:24:52;14.00;99.90
62998;DHT22;55949;52.590;7.330;2022-10-31T04:25:53;14.10;99.90
62998;DHT22;55949;52.590;7.330;2022-10-31T04:26:53;14.10;99.90
62998;DHT22;55949;52.590;7.330;2022-10-31T04:27:54;14.10;99.90
62998;DHT22;55949;52.590;7.330;2022-10-31T04:28:55;14.00;99.90
62998;DHT22;55949;52.590;7.330;2022-10-31T04:29:55;14.00;99.90
62998;DHT22;55949;52.590;7.330;2022-10-31T04:30:56;13.90;99.90
62998;DHT22;55949;52.590;7.330;2022-10-31T04:31:57;13.90;99.90
62998;DHT22;55949;52.590;7.330;2022-10-31T04:32:57;13.80;99.90
62998;DHT22;55949;52.590;7.330;2022-10-31T04:33:58;13.80;99.90
62998;DHT22;55949;52.590;7.330;2022-10-31T04:34:59;13.80;99.90
62998;DHT22;55949;52.590;7.330;2022-10-31T04:35:59;13.70;99.90
62998;DHT22;55949;52.590;7.330;2022-10-31T04:37:00;13.60;99.90
62998;DHT22;55949;52.590;7.330;2022-10-31T04:38:01;13.60;99.90
62998;DHT22;55949;52.590;7.330;2022-10-31T04:39:01;13.80;99.90
62998;DHT22;55949;52.590;7.330;2022-10-31T04:40:03;13.70;99.90
62998;DHT22;55949;52.590;7.330;2022-10-31T04:41:04;13.70;99.90
62998;DHT22;55949;52.590;7.330;2022-10-31T04:42:05;13.70;99.90
62998;DHT22;55949;52.590;7.330;2022-10-31T04:43:05;13.70;99.90
62998;DHT22;55949;52.590;7.330;2022-10-31T04:44:06;13.70;99.90
62998;DHT22;55949;52.590;7.330;2022-10-31T04:45:07;13.80;99.90
62998;DHT22;55949;52.590;7.330;2022-10-31T04:46:08;13.80;99.90
62998;DHT22;55949;52.590;7.330;2022-10-31T04:47:08;13.80;99.90
62998;DHT22;55949;52.590;7.330;2022-10-31T04:48:09;13.80;99.90
62998;DHT22;55949;52.590;7.330;2022-10-31T04:49:10;13.90;99.90
62998;DHT22;55949;52.590;7.330;2022-10-31T04:50:10;14.10;99.90
62998;DHT22;55949;52.590;7.330;2022-10-31T04:51:11;14.10;99.90
62998;DHT22;55949;52.590;7.330;2022-10-31T04:52:11;14.10;99.90
62998;DHT22;55949;52.590;7.330;2022-10-31T04:53:12;14.10;99.90
62998;DHT22;55949;52.590;7.330;2022-10-31T04:54:13;14.30;99.90
62998;DHT22;55949;52.590;7.330;2022-10-31T04:55:14;14.50;99.90
62998;DHT22;55949;52.590;7.330;2022-10-31T04:56:15;14.40;99.90
62998;DHT22;55949;52.590;7.330;2022-10-31T04:57:15;14.40;99.90
62998;DHT22;55949;52.590;7.330;2022-10-31T04:58:16;14.40;99.90
62998;DHT22;55949;52.590;7.330;2022-10-31T04:59:17;14.50;99.90
62998;DHT22;55949;52.590;7.330;2022-10-31T05:00:19;14.50;99.90
62998;DHT22;55949;52.590;7.330;2022-10-31T05:01:20;14.50;99.90
62998;DHT22;55949;52.590;7.330;2022-10-31T05:02:21;14.40;99.90
62998;DHT22;55949;52.590;7.330;2022-10-31T05:03:22;14.20;99.90
62998;DHT22;55949;52.590;7.330;2022-10-31T05:04:23;14.20;99.90
62998;DHT22;55949;52.590;7.330;2022-10-31T05:05:26;14.20;99.90
62998;DHT22;55949;52.590;7.330;2022-10-31T05:06:27;14.20;99.90
62998;DHT22;55949;52.590;7.330;2022-10-31T05:07:27;14.10;99.90
62998;DHT22;55949;52.590;7.330;2022-10-31T05:08:28;14.00;99.90
62998;DHT22;55949;52.590;7.330;2022-10-31T05:09:29;14.00;99.90
62998;DHT22;55949;52.590;7.330;2022-10-31T05:10:30;14.10;99.90
62998;DHT22;55949;52.590;7.330;2022-10-31T05:11:31;14.30;99.90
62998;DHT22;55949;52.590;7.330;2022-10-31T05:12:31;14.30;99.90
62998;DHT22;55949;52.590;7.330;2022-10-31T05:13:32;14.30;99.90
62998;DHT22;55949;52.590;7.330;2022-10-31T05:14:33;14.30;99.90
62998;DHT22;55949;52.590;7.330;2022-10-31T05:15:34;14.30;99.90
62998;DHT22;55949;52.590;7.330;2022-10-31T05:16:34;14.20;99.90
62998;DHT22;55949;52.590;7.330;2022-10-31T05:17:35;14.10;99.90
62998;DHT22;55949;52.590;7.330;2022-10-31T05:18:36;14.00;99.90
62998;DHT22;55949;52.590;7.330;2022-10-31T05:19:36;14.10;99.90
62998;DHT22;55949;52.590;7.330;2022-10-31T05:20:37;14.10;99.90
62998;DHT22;55949;52.590;7.330;2022-10-31T05:21:38;14.00;99.90
62998;DHT22;55949;52.590;7.330;2022-10-31T05:22:49;14.00;99.90
62998;DHT22;55949;52.590;7.330;2022-10-31T05:23:50;13.80;99.90
62998;DHT22;55949;52.590;7.330;2022-10-31T05:24:51;13.90;99.90
62998;DHT22;55949;52.590;7.330;2022-10-31T05:25:51;13.80;99.90
62998;DHT22;55949;52.590;7.330;2022-10-31T05:26:52;13.70;99.90
62998;DHT22;55949;52.590;7.330;2022-10-31T05:27:54;13.70;99.90
62998;DHT22;55949;52.590;7.330;2022-10-31T05:28:55;13.70;99.90
62998;DHT22;55949;52.590;7.330;2022-10-31T05:29:56;13.50;99.90
62998;DHT22;55949;52.590;7.330;2022-10-31T05:30:57;13.50;99.90
62998;DHT22;55949;52.590;7.330;2022-10-31T05:31:57;13.70;99.90
62998;DHT22;55949;52.590;7.330;2022-10-31T05:32:59;14.00;99.90
62998;DHT22;55949;52.590;7.330;2022-10-31T05:33:59;14.00;99.90
62998;DHT22;55949;52.590;7.330;2022-10-31T05:35:00;13.90;99.90
62998;DHT22;55949;52.590;7.330;2022-10-31T05:36:01;13.90;99.90
62998;DHT22;55949;52.590;7.330;2022-10-31T05:37:01;14.20;99.90
62998;DHT22;55949;52.590;7.330;2022-10-31T05:38:02;14.10;99.90
62998;DHT22;55949;52.590;7.330;2022-10-31T05:39:03;14.00;99.90
62998;DHT22;55949;52.590;7.330;2022-10-31T05:40:05;13.90;99.90
62998;DHT22;55949;52.590;7.330;2022-10-31T05:41:06;13.90;99.90
62998;DHT22;55949;52.590;7.330;2022-10-31T05:42:07;13.80;99.90
62998;DHT22;55949;52.590;7.330;2022-10-31T05:43:07;13.60;99.90
62998;DHT22;55949;52.590;7.330;2022-10-31T05:44:08;13.50;99.90
62998;DHT22;55949;52.590;7.330;2022-10-31T05:45:10;13.40;99.90
62998;DHT22;55949;52.590;7.330;2022-10-31T05:46:11;13.20;99.90
62998;DHT22;55949;52.590;7.330;2022-10-31T05:47:12;13.30;99.90
62998;DHT22;55949;52.590;7.330;2022-10-31T05:48:13;13.40;99.90
62998;DHT22;55949;52.590;7.330;2022-10-31T05:49:14;13.40;99.90
62998;DHT22;55949;52.590;7.330;2022-10-31T05:50:14;13.60;99.90
62998;DHT22;55949;52.590;7.330;2022-10-31T05:51:15;13.80;99.90
62998;DHT22;55949;52.590;7.330;2022-10-31T05:52:16;13.90;99.90
62998;DHT22;55949;52.590;7.330;2022-10-31T05:53:17;14.00;99.90
62998;DHT22;55949;52.590;7.330;2022-10-31T05:54:18;14.10;99.90
62998;DHT22;55949;52.590;7.330;2022-10-31T05:55:18;14.00;99.90
62998;DHT22;55949;52.590;7.330;2022-10-31T05:56:19;13.80;99.90
62998;DHT22;55949;52.590;7.330;2022-10-31T05:57:20;14.10;99.90
62998;DHT22;55949;52.590;7.330;2022-10-31T05:58:20;14.20;99.90
62998;DHT22;55949;52.590;7.330;2022-10-31T05:59:21;14.30;99.90
62998;DHT22;55949;52.590;7.330;2022-10-31T06:00:23;14.40;99.90
62998;DHT22;55949;52.590;7.330;2022-10-31T06:01:24;14.40;99.90
62998;DHT22;55949;52.590;7.330;2022-10-31T06:02:25;14.30;99.90
62998;DHT22;55949;52.590;7.330;2022-10-31T06:03:27;14.20;99.90
62998;DHT22;55949;52.590;7.330;2022-10-31T06:04:27;14.00;99.90
62998;DHT22;55949;52.590;7.330;2022-10-31T06:05:29;14.00;99.90
62998;DHT22;55949;52.590;7.330;2022-10-31T06:06:30;13.90;99.90
62998;DHT22;55949;52.590;7.330;2022-10-31T06:07:34;13.80;99.90
62998;DHT22;55949;52.590;7.330;2022-10-31T06:08:36;13.80;99.90
62998;DHT22;55949;52.590;7.330;2022-10-31T06:09:36;13.60;99.90
62998;DHT22;55949;52.590;7.330;2022-10-31T06:10:37;13.50;99.90
62998;DHT22;55949;52.590;7.330;2022-10-31T06:11:38;13.50;99.90
62998;DHT22;55949;52.590;7.330;2022-10-31T06:12:38;13.40;99.90
62998;DHT22;55949;52.590;7.330;2022-10-31T06:13:40;13.40;99.90
62998;DHT22;55949;52.590;7.330;2022-10-31T06:14:41;13.40;99.90
62998;DHT22;55949;52.590;7.330;2022-10-31T06:15:42;13.40;99.90
62998;DHT22;55949;52.590;7.330;2022-10-31T06:16:42;13.30;99.90
62998;DHT22;55949;52.590;7.330;2022-10-31T06:17:44;13.30;99.90
62998;DHT22;55949;52.590;7.330;2022-10-31T06:18:46;13.30;99.90
62998;DHT22;55949;52.590;7.330;2022-10-31T06:19:46;13.20;99.90
62998;DHT22;55949;52.590;7.330;2022-10-31T06:20:47;13.20;99.90
62998;DHT22;55949;52.590;7.330;2022-10-31T06:21:48;13.20;99.90
62998;DHT22;55949;52.590;7.330;2022-10-31T06:22:49;13.20;99.90
62998;DHT22;55949;52.590;7.330;2022-10-31T06:23:49;13.10;99.90
62998;DHT22;55949;52.590;7.330;2022-10-31T06:24:50;13.20;99.90
62998;DHT22;55949;52.590;7.330;2022-10-31T06:25:51;13.10;99.90
62998;DHT22;55949;52.590;7.330;2022-10-31T06:26:52;13.00;99.90
62998;DHT22;55949;52.590;7.330;2022-10-31T06:27:53;12.90;99.90
62998;DHT22;55949;52.590;7.330;2022-10-31T06:28:54;12.90;99.90
62998;DHT22;55949;52.590;7.330;2022-10-31T06:29:54;12.80;99.90
62998;DHT22;55949;52.590;7.330;2022-10-31T06:30:55;12.70;99.90
62998;DHT22;55949;52.590;7.330;2022-10-31T06:31:56;12.70;99.90
62998;DHT22;55949;52.590;7.330;2022-10-31T06:33:03;12.70;99.90
62998;DHT22;55949;52.590;7.330;2022-10-31T06:34:04;12.60;99.90
62998;DHT22;55949;52.590;7.330;2022-10-31T06:35:05;12.50;99.90
62998;DHT22;55949;52.590;7.330;2022-10-31T06:36:07;12.50;99.90
62998;DHT22;55949;52.590;7.330;2022-10-31T06:37:11;12.50;99.90
62998;DHT22;55949;52.590;7.330;2022-10-31T06:38:13;12.40;99.90
62998;DHT22;55949;52.590;7.330;2022-10-31T06:39:14;12.40;99.90
62998;DHT22;55949;52.590;7.330;2022-10-31T06:40:18;12.50;99.90
62998;DHT22;55949;52.590;7.330;2022-10-31T06:41:21;12.50;99.90
62998;DHT22;55949;52.590;7.330;2022-10-31T06:42:22;12.50;99.90
62998;DHT22;55949;52.590;7.330;2022-10-31T06:43:23;12.50;99.90
62998;DHT22;55949;52.590;7.330;2022-10-31T06:44:24;12.50;99.90
62998;DHT22;55949;52.590;7.330;2022-10-31T06:45:25;12.60;99.90
62998;DHT22;55949;52.590;7.330;2022-10-31T06:46:25;12.60;99.90
62998;DHT22;55949;52.590;7.330;2022-10-31T06:47:26;12.60;99.90
62998;DHT22;55949;52.590;7.330;2022-10-31T06:48:26;12.60;99.90
62998;DHT22;55949;52.590;7.330;2022-10-31T06:49:27;12.70;99.90
62998;DHT22;55949;52.590;7.330;2022-10-31T06:50:28;12.70;99.90
62998;DHT22;55949;52.590;7.330;2022-10-31T06:51:29;12.70;99.90
62998;DHT22;55949;52.590;7.330;2022-10-31T06:52:29;12.70;99.90
62998;DHT22;55949;52.590;7.330;2022-10-31T06:53:30;12.70;99.90
62998;DHT22;55949;52.590;7.330;2022-10-31T06:54:31;12.70;99.90
62998;DHT22;55949;52.590;7.330;2022-10-31T06:55:31;12.70;99.90
62998;DHT22;55949;52.590;7.330;2022-10-31T06:56:32;12.70;99.90
62998;DHT22;55949;52.590;7.330;2022-10-31T06:57:33;12.70;99.90
62998;DHT22;55949;52.590;7.330;2022-10-31T06:58:33;12.80;99.90
62998;DHT22;55949;52.590;7.330;2022-10-31T06:59:34;12.90;99.90
62998;DHT22;55949;52.590;7.330;2022-10-31T07:00:35;13.00;99.90
62998;DHT22;55949;52.590;7.330;2022-10-31T07:01:35;13.00;99.90
62998;DHT22;55949;52.590;7.330;2022-10-31T07:02:36;13.00;99.90
62998;DHT22;55949;52.590;7.330;2022-10-31T07:03:37;13.00;99.90
62998;DHT22;55949;52.590;7.330;2022-10-31T07:04:37;13.40;99.90
62998;DHT22;55949;52.590;7.330;2022-10-31T07:05:38;13.60;99.90